Flight Track Log - Related Links

Times and Time Zones

All times are in EDT time to prevent confusion due to time zone crossing. See the N885PE flight status page for this flight to view local times or setup timezone preferences in your user account.

Time Position Orientation Groundspeed Altitude Reporting Facility
EDT Latitude Longitude Course Direction KTS MPH feet Rate Location/Type
Sun 09:28:32 AM 25.5261 -77.9742 311° West 129 148 3,300  Level Miami Center
Sun 09:29:34 AM 25.5506 -78.0050 311° West 132 152 4,000 774 Climbing Miami Center
Sun 09:30:36 AM 25.5794 -78.0353 317° Northwest 131 151 4,900 780 Climbing Miami Center
Sun 09:31:37 AM 25.6064 -78.0642 316° Northwest 132 152 5,600 732 Climbing Miami Center
Sun 09:32:39 AM 25.6333 -78.0942 315° West 134 154 6,400 732 Climbing Miami Center
Sun 09:33:40 AM 25.6586 -78.1258 312° West 135 155 7,100 732 Climbing Miami Center
Sun 09:34:42 AM 25.6872 -78.1589 314° West 136 157 7,900 683 Climbing Miami Center
Sun 09:35:43 AM 25.7144 -78.1906 314° West 138 159 8,500 537 Climbing Miami Center
Sun 09:36:45 AM 25.7419 -78.2175 319° Northwest 145 167 9,000 488 Climbing Miami Center
Sun 09:37:46 AM 25.7775 -78.2447 325° Northwest 151 174 9,500 537 Climbing Miami Center
Sun 09:38:48 AM 25.8181 -78.2794 322° Northwest 152 175 10,100 532 Climbing Miami Center
Sun 09:39:50 AM 25.8475 -78.3142 313° West 153 176 10,600 537 Climbing Miami Center
Sun 09:40:51 AM 25.8747 -78.3497 310° West 153 176 11,200 537 Climbing Miami Center
Sun 09:41:53 AM 25.9033 -78.3831 314° West 152 175 11,700 488 Climbing Miami Center
Sun 09:42:54 AM 25.9325 -78.4167 314° West 151 174 12,200 488 Climbing Miami Center
Sun 09:43:56 AM 25.9592 -78.4483 313° West 146 168 12,700 484 Climbing Miami Center
Sun 09:44:58 AM 25.9867 -78.4792 315° West 143 165 13,200 488 Climbing Miami Center
Sun 09:45:59 AM 26.0125 -78.5106 312° West 142 163 13,700 439 Climbing Miami Center
Sun 09:47:01 AM 26.0389 -78.5400 315° West 138 159 14,100 195 Climbing Miami Center
Sun 09:48:02 AM 26.0758 -78.5819 314° West 156 180 14,100  Level Miami Center
Sun 09:49:04 AM 26.1069 -78.6183 314° West 159 183 14,100  Level Miami Center
Sun 09:50:05 AM 26.1361 -78.6536 313° West 159 183 14,100  Level Miami Center
Sun 09:51:07 AM 26.1667 -78.6894 314° West 159 183 14,100  Level Miami Center
Sun 09:52:09 AM 26.1969 -78.7250 314° West 158 182 14,100  Level Miami Center
Sun 09:53:10 AM 26.2264 -78.7597 313° West 158 182 14,100  Level Miami Center
Sun 09:54:12 AM 26.2569 -78.7942 315° West 158 182 14,100  Level Miami Center
Sun 09:55:13 AM 26.2875 -78.8297 314° West 158 182 14,100  Level Miami Center
Sun 09:56:15 AM 26.3172 -78.8656 313° West 158 182 14,100  Level Miami Center
Sun 09:57:17 AM 26.3539 -78.9075 314° West 157 181 14,100  Level Miami Center
Sun 09:58:18 AM 26.3839 -78.9431 313° West 157 181 14,100  Level Miami Center
Sun 09:59:20 AM 26.4142 -78.9792 313° West 157 181 14,100  Level Miami Center
Sun 10:00:22 AM 26.4450 -79.0150 314° West 157 181 14,100  Level Miami Center
Sun 10:01:24 AM 26.4758 -79.0514 313° West 159 183 14,100  Level Miami Center
Sun 10:02:25 AM 26.5069 -79.0878 314° West 160 184 14,100  Level Miami Center
Sun 10:03:27 AM 26.5383 -79.1225 315° West 160 184 14,100  Level Miami Center
Sun 10:04:29 AM 26.5706 -79.1569 316° Northwest 160 184 14,100  Level Miami Center
Sun 10:05:30 AM 26.6042 -79.1892 319° Northwest 160 184 14,100  Level Miami Center
Sun 10:06:32 AM 26.6444 -79.2286 319° Northwest 160 184 14,100  Level Miami Center
Sun 10:07:34 AM 26.6783 -79.2608 320° Northwest 160 184 14,100  Level Miami Center
Sun 10:08:36 AM 26.7097 -79.2889 321° Northwest 160 184 14,100  Level Miami Center
Sun 10:09:37 AM 26.7433 -79.3217 319° Northwest 160 184 14,100  Level Miami Center
Sun 10:10:39 AM 26.7836 -79.3594 320° Northwest 160 184 14,100  Level Miami Center
Sun 10:11:41 AM 26.8194 -79.3933 320° Northwest 160 184 14,100  Level Miami Center
Sun 10:12:42 AM 26.8514 -79.4250 319° Northwest 160 184 14,100  Level Miami Center
Sun 10:13:44 AM 26.8794 -79.4658 308° West 160 184 14,100  Level Miami Center
Sun 10:14:46 AM 26.9094 -79.5042 311° West 158 182 14,100  Level Miami Center
Sun 10:15:48 AM 26.9397 -79.5436 311° West 158 182 14,100  Level Miami Center
Sun 10:16:49 AM 26.9711 -79.5828 312° West 159 183 14,100  Level Miami Center
Sun 10:17:51 AM 27.0000 -79.6189 312° West 160 184 14,100  Level Miami Center
Sun 10:18:53 AM 27.0303 -79.6572 312° West 158 182 14,100  Level Miami Center
Sun 10:19:55 AM 27.0597 -79.6964 310° West 158 182 14,100  Level Miami Center
Sun 10:20:56 AM 27.0908 -79.7356 312° West 159 183 14,100  Level Miami Center
Sun 10:21:58 AM 27.1208 -79.7744 311° West 158 182 14,100  Level Miami Center
Sun 10:23:00 AM 27.1492 -79.8097 312° West 158 182 14,100 -48 Level Miami Center
Sun 10:24:02 AM 27.1792 -79.8489 311° West 158 182 14,000 -97 Descending Miami Center
Sun 10:25:04 AM 27.2131 -79.8867 315° West 162 186 13,900 -145 Descending Miami Center
Sun 10:26:06 AM 27.2486 -79.9242 317° Northwest 165 190 13,700 -145 Descending Miami Center
Sun 10:27:08 AM 27.2850 -79.9606 318° Northwest 166 191 13,600 -98 Descending Miami Center
Sun 10:28:09 AM 27.3178 -79.9931 319° Northwest 166 191 13,500 -98 Descending Miami Center
Sun 10:29:11 AM 27.3542 -80.0292 319° Northwest 166 191 13,400 -97 Descending Miami Center
Sun 10:30:13 AM 27.3906 -80.0647 319° Northwest 166 191 13,300 -97 Descending Miami Center
Sun 10:31:15 AM 27.4258 -80.1006 318° Northwest 165 190 13,200 -97 Descending Miami Center
Sun 10:32:17 AM 27.4619 -80.1364 319° Northwest 165 190 13,100 -97 Descending Miami Center
Sun 10:33:19 AM 27.4983 -80.1728 318° Northwest 165 190 13,000 -97 Descending Miami Center
Sun 10:34:21 AM 27.5319 -80.2058 319° Northwest 165 190 12,900 -97 Descending Miami Center
Sun 10:35:23 AM 27.5672 -80.2417 318° Northwest 165 190 12,800 -97 Descending Miami Center
Sun 10:36:25 AM 27.6031 -80.2775 318° Northwest 165 190 12,700 -194 Descending Miami Center
Sun 10:37:27 AM 27.6383 -80.3164 316° Northwest 168 193 12,400 -290 Descending Miami Center
Sun 10:38:29 AM 27.6719 -80.3572 313° West 169 194 12,100 -290 Descending Miami Center
Sun 10:39:31 AM 27.7061 -80.3994 312° West 170 196 11,800 -339 Descending Miami Center
Sun 10:40:33 AM 27.7400 -80.4425 312° West 174 200 11,400 -387 Descending Miami Center
Sun 10:41:35 AM 27.7686 -80.4833 308° West 173 199 11,000 -387 Descending Miami Center
Sun 10:42:37 AM 27.8033 -80.5264 312° West 174 200 10,600 -387 Descending Miami Center
Sun 10:43:39 AM 27.8442 -80.5617 323° Northwest 175 201 10,200 -435 Descending Miami Center
Sun 10:44:41 AM 27.8850 -80.5986 321° Northwest 177 204 9,700 -484 Descending Miami Center
Sun 10:45:43 AM 27.9258 -80.6353 322° Northwest 177 204 9,200 -484 Descending Miami Center
Sun 10:46:45 AM 27.9672 -80.6725 322° Northwest 179 206 8,700 -484 Descending Miami Center
Sun 10:47:47 AM 28.0078 -80.7097 321° Northwest 181 208 8,200 -532 Descending Miami Center
Sun 10:48:49 AM 28.0481 -80.7461 321° Northwest 180 207 7,600 -581 Descending Miami Center
Sun 10:49:51 AM 28.0833 -80.7833 317° Northwest 176 203 7,000 -590 Descending Orlando TRACON
Sun 10:50:51 AM 28.1333 -80.8167 330° Northwest 173 199 6,400 -600 Descending Orlando TRACON
Sun 10:51:51 AM 28.1667 -80.8500 319° Northwest 172 198 5,800 -600 Descending Orlando TRACON
Sun 10:52:51 AM 28.2000 -80.8833 319° Northwest 170 196 5,200 -574 Descending Orlando TRACON
Sun 10:53:46 AM 28.2333 -80.9167 319° Northwest 170 196 4,700 -595 Descending Orlando TRACON
Sun 10:54:52 AM 28.2667 -80.9500 319° Northwest 174 200 4,000 -600 Descending Orlando TRACON
Sun 10:55:46 AM 28.3167 -80.9667 344° North 173 199 3,500 -579 Descending Orlando TRACON
Sun 10:56:46 AM 28.3500 -81.0000 319° Northwest 172 198 2,900 -600 Descending Orlando TRACON
Sun 10:57:46 AM 28.3833 -81.0333 319° Northwest 161 185 2,300 -500 Descending Orlando TRACON
Sun 10:58:46 AM 28.4167 -81.0667 319° Northwest 162 186 1,900 -298 Descending Orlando TRACON
Sun 10:59:47 AM 28.4500 -81.1000 319° Northwest 151 174 1,700 -198 Descending Orlando TRACON
Sun 11:00:47 AM 28.4833 -81.1333 319° Northwest 151 174 1,500 -200 Descending Orlando TRACON
Sun 11:01:47 AM 28.5167 -81.1667 319° Northwest 152 175 1,300 -200 Descending Orlando TRACON
Sun 11:02:47 AM 28.5500 -81.1833 336° Northwest 151 174 1,100 -100 Descending Orlando TRACON
Sun 11:03:47 AM 28.5833 -81.2167 319° Northwest 144 166 1,100  Level Orlando TRACON
Sun 11:04:53 AM 28.5833 -81.2500 270° West 121 139 1,100 -149 Level Orlando TRACON
Sun 11:05:48 AM 28.5667 -81.2833 240° Southwest 95 109 800 -365 Descending Orlando TRACON
Sun 11:06:48 AM 28.5500 -81.3000 221° Southwest 83 96 400 -400 Descending Orlando TRACON
Sun 11:08:00 AM 28.5455 -81.3329 221° Southwest  Level Estimated

Login

Don't have an account? Register now (free) for customized features, flight alerts, and more!